Time;durP1;ratioP1;P1;durP2;ratioP2;P2;SDS_P1;SDS_P2;PMS_P1;PMS_P2;Temp;Humidity;BMP_temperature;BMP_pressure;BME280_temperature;BME280_humidity;BME280_pressure;Samples;Min_cycle;Max_cycle;Signal;HPM_P1;HPM_P2
2022/03/20 00:00:16;;;;;;;;;5.67;5.67;;;;;10.43;31.81;102252.13;5000677;28;46074;-70
2022/03/20 00:02:42;;;;;;;;;6.67;4.00;;;;;10.49;31.91;102257.00;5000796;28;45527;-70
2022/03/20 00:05:08;;;;;;;;;3.33;3.33;;;;;10.45;31.70;102244.03;5018707;28;45252;-70
2022/03/20 00:07:34;;;;;;;;;5.67;4.00;;;;;10.00;31.62;102183.25;5018319;28;45550;-70
2022/03/20 00:10:04;;;;;;;;;4.33;2.67;;;;;10.22;31.97;102248.28;5000338;28;45335;-71
2022/03/20 00:12:30;;;;;;;;;6.00;5.00;;;;;10.24;31.89;102244.56;5018501;28;45521;-70
2022/03/20 00:14:55;;;;;;;;;7.67;5.00;;;;;10.28;31.87;102238.06;5018467;28;45324;-69
2022/03/20 00:17:21;;;;;;;;;7.67;4.00;;;;;10.24;31.44;102233.06;4999951;28;48502;-71
2022/03/20 00:19:47;;;;;;;;;7.33;5.00;;;;;10.24;31.77;102246.34;4998908;28;45635;-71
2022/03/20 00:22:14;;;;;;;;;3.00;3.00;;;;;10.15;31.73;102237.16;5018364;28;45525;-69
2022/03/20 00:24:40;;;;;;;;;3.00;3.00;;;;;9.56;31.85;102137.63;5017043;28;45479;-70
2022/03/20 00:27:12;;;;;;;;;4.00;3.00;;;;;10.00;32.22;102211.63;4999791;28;47548;-69
2022/03/20 00:29:38;;;;;;;;;4.00;3.00;;;;;9.99;31.59;102226.72;5017996;28;45624;-71
2022/03/20 00:32:06;;;;;;;;;4.00;4.00;;;;;9.71;32.01;102184.38;5000251;28;45394;-70
2022/03/20 00:34:32;;;;;;;;;4.00;4.00;;;;;9.80;32.05;102215.63;5018060;28;45587;-69
2022/03/20 00:36:57;;;;;;;;;2.00;2.00;;;;;9.75;32.38;102202.66;5017782;28;46265;-69
2022/03/20 00:39:23;;;;;;;;;3.00;3.00;;;;;9.88;32.03;102223.94;5000002;28;45410;-69
2022/03/20 00:41:48;;;;;;;;;2.00;2.00;;;;;9.15;32.20;102106.72;5001370;28;45484;-69
2022/03/20 00:44:13;;;;;;;;;3.33;1.67;;;;;9.84;32.29;102233.09;5019078;28;45386;-70
2022/03/20 00:46:39;;;;;;;;;3.33;3.33;;;;;9.87;32.28;102232.88;5018644;28;46356;-69
2022/03/20 00:49:07;;;;;;;;;3.00;2.00;;;;;9.96;32.15;102231.38;5001144;28;45495;-70
2022/03/20 00:51:33;;;;;;;;;3.33;3.33;;;;;9.85;32.49;102226.81;5017827;28;45490;-71
2022/03/20 00:53:59;;;;;;;;;4.33;4.33;;;;;9.87;32.73;102229.38;5017975;28;45271;-69
2022/03/20 00:56:25;;;;;;;;;5.00;5.00;;;;;9.90;32.38;102234.47;5017746;28;45823;-71
2022/03/20 00:58:51;;;;;;;;;3.67;2.33;;;;;9.83;32.40;102217.25;5017308;28;45339;-70
2022/03/20 01:01:16;;;;;;;;;4.67;3.67;;;;;9.89;32.67;102219.50;4999891;28;45246;-68
2022/03/20 01:03:42;;;;;;;;;3.33;3.33;;;;;9.71;32.92;102224.22;5000102;28;45642;-70
2022/03/20 01:06:08;;;;;;;;;4.00;4.00;;;;;9.53;32.74;102186.47;5016237;28;47462;-70
2022/03/20 01:08:37;;;;;;;;;7.33;5.00;;;;;9.64;32.98;102226.44;4999517;28;45531;-70
2022/03/20 01:11:03;;;;;;;;;4.00;4.00;;;;;9.19;33.01;102141.88;5017483;28;45206;-67
2022/03/20 01:13:29;;;;;;;;;4.00;3.67;;;;;9.66;32.82;102208.59;4999657;28;45496;-68
2022/03/20 01:15:55;;;;;;;;;7.00;4.00;;;;;9.69;32.99;102215.50;5017182;28;45796;-71
2022/03/20 01:18:21;;;;;;;;;3.00;3.00;;;;;9.71;33.22;102202.97;4999513;28;45658;-69
2022/03/20 01:20:46;;;;;;;;;2.33;2.33;;;;;9.35;33.06;102138.09;5017601;28;45352;-70
2022/03/20 01:23:12;;;;;;;;;3.00;3.00;;;;;9.74;33.06;102206.28;5017556;28;45495;-70
2022/03/20 01:25:38;;;;;;;;;5.00;4.00;;;;;9.69;32.96;102199.56;4999445;28;46292;-70
2022/03/20 01:28:04;;;;;;;;;4.33;3.00;;;;;9.29;33.10;102140.31;4999204;28;45409;-68
2022/03/20 01:30:30;;;;;;;;;4.67;3.00;;;;;9.53;33.42;102191.78;5017246;28;45479;-70
2022/03/20 01:32:56;;;;;;;;;4.00;4.00;;;;;9.51;33.33;102175.09;5015877;28;45498;-70
2022/03/20 01:35:21;;;;;;;;;3.00;3.00;;;;;9.64;33.51;102199.03;4999330;28;46583;-70
2022/03/20 01:37:50;;;;;;;;;7.00;3.33;;;;;9.41;33.98;102192.56;5017241;28;45260;-70
2022/03/20 01:40:20;;;;;;;;;5.00;4.00;;;;;9.22;34.13;102184.16;4987009;28;45584;-70
2022/03/20 01:42:46;;;;;;;;;2.67;2.00;;;;;9.30;34.16;102195.94;4979928;28;45529;-70
2022/03/20 01:45:20;;;;;;;;;5.67;3.33;;;;;9.37;34.22;102201.69;4996728;28;45813;-70
2022/03/20 01:47:49;;;;;;;;;3.67;2.67;;;;;9.29;34.49;102188.09;4997046;28;45186;-69
2022/03/20 01:50:16;;;;;;;;;3.00;3.00;;;;;9.18;35.02;102191.44;4997017;28;45442;-71
2022/03/20 01:52:45;;;;;;;;;4.00;4.00;;;;;9.24;34.64;102195.50;4997480;28;45242;-69
2022/03/20 01:55:10;;;;;;;;;4.00;4.00;;;;;9.21;34.88;102185.06;4995722;28;46786;-70
2022/03/20 01:57:39;;;;;;;;;6.33;4.00;;;;;9.23;35.03;102177.88;4997093;28;45228;-70
2022/03/20 02:00:06;;;;;;;;;4.00;4.00;;;;;9.12;35.15;102146.72;4997199;28;45385;-69
2022/03/20 02:02:32;;;;;;;;;3.67;3.67;;;;;9.19;35.04;102171.91;4997353;28;45423;-69
2022/03/20 02:04:57;;;;;;;;;3.00;3.00;;;;;9.07;35.10;102141.72;4995653;28;46032;-69
2022/03/20 02:07:25;;;;;;;;;3.00;3.00;;;;;9.09;35.46;102144.28;4979114;28;45532;-68
2022/03/20 02:09:51;;;;;;;;;3.67;3.33;;;;;9.13;35.96;102173.16;5008601;28;45281;-71
2022/03/20 02:12:19;;;;;;;;;3.33;3.33;;;;;8.29;36.03;102046.94;5020693;28;45525;-70
2022/03/20 02:14:44;;;;;;;;;3.00;3.00;;;;;8.74;36.87;102123.53;5020180;28;46369;-69
2022/03/20 02:17:11;;;;;;;;;5.33;3.00;;;;;8.86;36.76;102176.75;5020036;28;45511;-70
2022/03/20 02:19:39;;;;;;;;;4.00;2.67;;;;;8.78;36.83;102156.84;5020124;28;45438;-69
2022/03/20 02:22:05;;;;;;;;;3.33;2.33;;;;;8.74;37.44;102163.31;5020287;28;45541;-69
2022/03/20 02:24:41;;;;;;;;;6.00;5.00;;;;;8.39;37.10;102104.56;5001977;28;46791;-68
2022/03/20 02:27:06;;;;;;;;;1.33;1.33;;;;;8.66;37.79;102159.44;5019918;28;45231;-69
2022/03/20 02:29:32;;;;;;;;;2.67;2.67;;;;;8.51;37.68;102151.50;5002061;28;45290;-69
2022/03/20 02:32:01;;;;;;;;;2.00;1.33;;;;;8.25;38.03;102131.06;5020449;28;45308;-70
2022/03/20 02:34:27;;;;;;;;;2.33;2.33;;;;;8.33;38.58;102151.78;5020051;28;45528;-69
2022/03/20 02:36:54;;;;;;;;;2.67;2.67;;;;;8.05;38.24;102095.22;5019462;28;45352;-70
2022/03/20 02:39:20;;;;;;;;;6.67;4.67;;;;;8.21;39.06;102143.66;4994671;28;45622;-70
2022/03/20 02:41:48;;;;;;;;;5.00;4.00;;;;;8.04;39.04;102133.22;4982257;28;45261;-70
2022/03/20 02:44:13;;;;;;;;;9.67;6.33;;;;;7.97;39.14;102137.19;4981748;28;46527;-69
2022/03/20 02:46:39;;;;;;;;;6.33;4.67;;;;;7.97;40.28;102142.47;4982096;28;45519;-71
2022/03/20 02:49:08;;;;;;;;;2.67;2.67;;;;;7.83;40.16;102126.59;4999838;28;45417;-69
2022/03/20 02:51:35;;;;;;;;;5.67;3.33;;;;;7.79;39.72;102128.53;5000251;28;45440;-71
2022/03/20 02:54:02;;;;;;;;;4.00;4.00;;;;;7.80;40.87;102134.69;4999571;28;45867;-69
2022/03/20 02:56:28;;;;;;;;;4.67;3.33;;;;;7.77;40.33;102126.94;4981966;28;46136;-70
2022/03/20 02:58:54;;;;;;;;;3.33;2.00;;;;;7.74;41.35;102137.72;5000606;28;45503;-69
2022/03/20 03:01:19;;;;;;;;;4.00;4.00;;;;;7.77;40.75;102126.94;4982296;28;45379;-70
2022/03/20 03:03:45;;;;;;;;;3.00;3.00;;;;;7.85;40.87;102137.94;4999426;28;46657;-69
2022/03/20 03:06:14;;;;;;;;;3.67;3.67;;;;;7.83;40.89;102123.94;4999588;28;45483;-70
2022/03/20 03:11:23;;;;;;;;;4.33;3.00;;;;;7.84;41.35;102125.66;4999979;28;45254;-70
2022/03/20 03:13:49;;;;;;;;;3.00;3.00;;;;;7.65;41.99;102125.91;4999374;28;46052;-72
2022/03/20 03:16:16;;;;;;;;;4.00;4.00;;;;;7.71;42.14;102130.81;4999346;28;45226;-69
2022/03/20 03:18:46;;;;;;;;;6.00;4.00;;;;;7.70;41.92;102117.69;4999430;28;45463;-69
2022/03/20 03:21:17;;;;;;;;;6.00;5.00;;;;;7.73;42.07;102109.53;4997711;28;45250;-69
2022/03/20 03:23:43;;;;;;;;;9.33;7.33;;;;;7.72;42.52;102105.19;4998286;28;45944;-69
2022/03/20 03:26:10;;;;;;;;;13.33;11.00;;;;;7.62;42.46;102113.69;4999329;28;45595;-70
2022/03/20 03:28:36;;;;;;;;;8.00;6.67;;;;;7.54;42.90;102126.53;5006759;28;45527;-69
2022/03/20 03:31:07;;;;;;;;;8.33;6.67;;;;;7.41;43.55;102114.97;5019220;28;45477;-70
2022/03/20 03:33:33;;;;;;;;;9.33;7.67;;;;;7.40;43.91;102121.19;5001155;28;46820;-68
2022/03/20 03:35:59;;;;;;;;;10.33;6.67;;;;;7.28;43.90;102098.09;5019325;28;45239;-69
2022/03/20 03:38:35;;;;;;;;;5.00;5.00;;;;;7.36;43.79;102117.00;5000921;28;45339;-70
2022/03/20 03:41:01;;;;;;;;;8.33;7.00;;;;;7.48;44.03;102118.09;5019039;28;45239;-70
2022/03/20 03:43:27;;;;;;;;;5.00;5.00;;;;;7.56;43.56;102116.69;5018581;28;45696;-70
2022/03/20 03:45:53;;;;;;;;;7.00;7.00;;;;;7.54;44.00;102113.28;5000927;28;45781;-69
2022/03/20 03:48:19;;;;;;;;;7.00;6.00;;;;;7.55;43.76;102119.44;5019007;28;45512;-70
2022/03/20 03:50:47;;;;;;;;;5.33;5.33;;;;;7.46;43.95;102115.53;5017591;28;45528;-69
2022/03/20 03:53:14;;;;;;;;;7.00;5.33;;;;;7.43;44.12;102114.88;5000803;28;48462;-69
2022/03/20 03:55:44;;;;;;;;;8.33;5.67;;;;;7.32;44.30;102099.63;5000509;28;45346;-70
2022/03/20 03:58:10;;;;;;;;;7.00;4.67;;;;;7.42;44.14;102108.75;5018818;28;45568;-69
2022/03/20 04:00:35;;;;;;;;;7.00;4.00;;;;;7.41;44.49;102096.44;5000484;28;45492;-69
2022/03/20 04:03:01;;;;;;;;;5.33;4.33;;;;;7.21;44.67;102110.00;5018365;28;45507;-68
2022/03/20 04:05:28;;;;;;;;;6.33;6.00;;;;;7.07;45.49;102086.97;5000533;28;45208;-69
2022/03/20 04:07:53;;;;;;;;;6.00;5.00;;;;;6.79;45.25;102033.97;5018452;28;45184;-69
2022/03/20 04:10:19;;;;;;;;;10.67;7.00;;;;;6.75;45.64;102030.66;5018330;28;45495;-70
2022/03/20 04:12:45;;;;;;;;;6.00;6.00;;;;;7.18;45.43;102099.56;5018110;28;45862;-69
2022/03/20 04:15:12;;;;;;;;;8.00;6.00;;;;;7.26;45.49;102111.41;5018038;28;45420;-71
2022/03/20 04:17:38;;;;;;;;;9.67;8.00;;;;;7.34;45.00;102105.66;5018135;28;45345;-68
2022/03/20 04:20:06;;;;;;;;;5.33;5.33;;;;;7.24;45.33;102088.66;5018308;28;45526;-68
2022/03/20 04:22:34;;;;;;;;;6.67;6.00;;;;;7.44;45.44;102109.50;5017960;28;45889;-68
2022/03/20 04:24:59;;;;;;;;;6.33;6.00;;;;;7.28;45.34;102096.31;5017939;28;45344;-70
2022/03/20 04:27:25;;;;;;;;;8.67;8.67;;;;;7.27;45.88;102105.19;5017651;28;45490;-68
2022/03/20 04:29:52;;;;;;;;;9.33;8.67;;;;;7.13;46.16;102101.63;5018337;28;45416;-71
2022/03/20 04:32:18;;;;;;;;;6.33;6.33;;;;;7.22;46.34;102107.25;5000173;28;47797;-70
2022/03/20 04:34:43;;;;;;;;;9.67;9.67;;;;;6.93;46.02;102042.81;5017723;28;45447;-67
2022/03/20 04:37:10;;;;;;;;;9.67;9.00;;;;;7.15;46.46;102105.03;5018160;28;45456;-69
2022/03/20 04:39:37;;;;;;;;;5.67;5.00;;;;;7.16;46.77;102101.44;5018128;28;45549;-70
2022/03/20 04:42:04;;;;;;;;;11.67;9.00;;;;;7.28;45.56;102106.03;5017893;28;46321;-69
2022/03/20 04:44:31;;;;;;;;;10.00;10.00;;;;;6.97;45.32;102025.81;5018039;28;45580;-69
2022/03/20 04:46:56;;;;;;;;;10.67;9.33;;;;;7.29;45.99;102081.28;5018664;28;45382;-71
2022/03/20 05:00:18;;;;;;;;;12.00;10.00;;;;;7.24;46.53;102083.34;5017973;28;45202;-68
2022/03/20 05:02:45;;;;;;;;;14.00;11.67;;;;;7.28;46.76;102079.59;5017376;28;46379;-70
2022/03/20 05:05:10;;;;;;;;;12.33;10.67;;;;;7.19;46.43;102083.59;5017766;28;45370;-68
2022/03/20 05:07:36;;;;;;;;;13.00;12.00;;;;;7.08;47.03;102090.47;5017595;28;45305;-70
2022/03/20 05:15:31;;;;;;;;;10.00;8.67;;;;;7.14;47.66;102087.47;5017252;28;45360;-71
2022/03/20 05:17:57;;;;;;;;;10.00;9.00;;;;;7.07;47.20;102097.56;5017298;28;45285;-70
2022/03/20 05:20:23;;;;;;;;;13.00;10.33;;;;;7.04;47.29;102091.59;5017842;28;45387;-70
2022/03/20 05:22:49;;;;;;;;;10.00;9.67;;;;;6.96;47.03;102086.72;4999233;28;46657;-69
2022/03/20 05:25:16;;;;;;;;;12.00;11.33;;;;;6.94;48.01;102097.41;5017242;28;45653;-69
2022/03/20 05:27:42;;;;;;;;;8.67;8.67;;;;;6.93;48.26;102079.81;5008800;28;45314;-69
2022/03/20 05:30:08;;;;;;;;;9.67;9.33;;;;;6.83;48.18;102075.16;4997760;28;45306;-68
2022/03/20 05:32:51;;;;;;;;;1.00;0.00;;;;;6.94;47.92;102085.97;4979573;28;46121;-70
2022/03/20 05:35:17;;;;;;;;;11.00;10.00;;;;;6.96;47.78;102084.94;4997492;28;45412;-71
2022/03/20 05:37:46;;;;;;;;;6.33;6.33;;;;;7.00;47.85;102091.75;4997135;28;45211;-72
2022/03/20 05:40:14;;;;;;;;;10.67;9.00;;;;;6.91;48.44;102080.84;4997638;28;45343;-69
2022/03/20 05:42:40;;;;;;;;;10.00;8.33;;;;;6.59;48.51;102033.31;4979309;28;47468;-71
2022/03/20 05:45:13;;;;;;;;;11.00;10.00;;;;;6.87;48.34;102087.28;4978336;28;45249;-69
2022/03/20 05:47:44;;;;;;;;;9.33;9.33;;;;;6.78;49.03;102083.34;4996119;28;45239;-71
2022/03/20 05:50:10;;;;;;;;;10.67;7.67;;;;;6.38;48.92;102043.28;4997212;28;45393;-69
2022/03/20 05:52:36;;;;;;;;;14.33;10.33;;;;;6.52;49.41;102071.59;4997162;28;45538;-68
2022/03/20 05:55:05;;;;;;;;;9.67;8.33;;;;;6.57;49.05;102073.97;4997197;28;45400;-69
2022/03/20 06:00:25;;;;;;;;;10.67;10.00;;;;;6.65;48.53;102055.91;5017162;28;45427;-68
2022/03/20 06:02:51;;;;;;;;;9.33;6.33;;;;;6.73;48.81;102082.75;5016654;28;46154;-69
2022/03/20 06:05:17;;;;;;;;;10.67;10.67;;;;;6.31;49.43;102017.31;5016642;28;45237;-69
2022/03/20 06:07:44;;;;;;;;;10.00;9.67;;;;;6.76;49.34;102082.56;5016869;28;45305;-71
2022/03/20 06:10:11;;;;;;;;;15.33;11.00;;;;;6.78;48.72;102043.69;5017065;28;45488;-69
2022/03/20 06:12:37;;;;;;;;;13.00;12.00;;;;;6.92;48.47;102077.28;5016504;28;46752;-70
2022/03/20 06:15:03;;;;;;;;;13.33;11.67;;;;;6.84;49.41;102075.09;5016326;28;45525;-70
2022/03/20 06:17:29;;;;;;;;;10.33;10.00;;;;;6.94;48.85;102094.75;5016144;28;45493;-70
2022/03/20 06:19:54;;;;;;;;;12.67;12.67;;;;;6.78;48.95;102083.34;5016646;28;45479;-68
2022/03/20 06:22:20;;;;;;;;;12.33;12.33;;;;;6.66;50.02;102070.84;5016448;28;46615;-70
2022/03/20 06:24:50;;;;;;;;;12.33;11.00;;;;;6.57;49.61;102085.41;5016496;28;45459;-70
2022/03/20 06:27:16;;;;;;;;;9.00;9.00;;;;;6.67;49.50;102094.53;5008880;28;45317;-68
2022/03/20 06:29:41;;;;;;;;;19.33;13.67;;;;;6.89;49.35;102095.97;4979480;28;45433;-70
2022/03/20 06:32:07;;;;;;;;;10.33;9.33;;;;;6.42;48.74;102008.81;4996348;28;46072;-68
2022/03/20 06:34:34;;;;;;;;;10.67;10.67;;;;;6.57;49.44;102023.78;4996613;28;45456;-69
2022/03/20 06:36:59;;;;;;;;;12.33;12.00;;;;;7.06;48.31;102095.00;4996910;28;45478;-69
2022/03/20 06:39:25;;;;;;;;;11.67;11.67;;;;;7.19;48.54;102106.56;4979064;28;45484;-71
2022/03/20 06:41:50;;;;;;;;;14.00;13.00;;;;;7.29;48.54;102107.75;4996590;28;45791;-69
2022/03/20 06:44:15;;;;;;;;;11.67;11.67;;;;;7.30;47.80;102112.09;4996727;28;45218;-71
2022/03/20 06:46:42;;;;;;;;;14.33;14.33;;;;;7.13;49.09;102109.56;4996438;28;45460;-69
2022/03/20 06:49:09;;;;;;;;;13.67;13.33;;;;;7.16;48.14;102117.31;4997920;28;45416;-69
2022/03/20 06:51:34;;;;;;;;;13.00;13.00;;;;;6.88;48.90;102075.75;4994930;28;47719;-70
2022/03/20 06:54:00;;;;;;;;;19.33;13.00;;;;;6.64;48.46;102039.22;4996226;28;45484;-70
2022/03/20 06:56:27;;;;;;;;;15.00;14.33;;;;;7.14;48.62;102100.69;4997542;28;45248;-70
2022/03/20 06:58:53;;;;;;;;;18.33;14.67;;;;;7.41;48.54;102133.50;4982042;28;45937;-69
2022/03/20 07:01:19;;;;;;;;;17.33;15.67;;;;;7.37;47.84;102124.00;4999172;28;45503;-71
2022/03/20 07:03:44;;;;;;;;;19.67;15.00;;;;;7.47;47.98;102126.97;4999455;28;45498;-71
2022/03/20 07:06:09;;;;;;;;;18.67;15.00;;;;;7.56;48.16;102129.06;4981919;28;45443;-68
2022/03/20 07:08:35;;;;;;;;;21.00;15.33;;;;;7.62;47.28;102128.72;4999750;28;45263;-70
2022/03/20 07:11:00;;;;;;;;;19.67;15.67;;;;;7.98;46.94;102138.88;4999360;28;47060;-68
2022/03/20 07:16:14;;;;;;;;;15.67;14.00;;;;;8.21;45.97;102135.69;4999627;28;45548;-69
2022/03/20 07:18:40;;;;;;;;;21.00;17.33;;;;;8.75;45.76;102141.16;4999683;28;45172;-69
2022/03/20 07:21:06;;;;;;;;;14.33;12.33;;;;;9.78;43.46;102145.81;4999260;28;45679;-70
2022/03/20 07:23:32;;;;;;;;;20.00;19.33;;;;;10.95;40.28;102131.34;4999114;28;45312;-69
2022/03/20 07:31:26;;;;;;;;;16.00;15.67;;;;;13.73;35.11;102117.28;4999144;28;45440;-69
2022/03/20 07:33:51;;;;;;;;;16.33;13.33;;;;;14.14;34.07;102119.06;5014500;28;45332;-69
2022/03/20 07:36:19;;;;;;;;;20.00;16.00;;;;;14.76;33.41;102121.56;4998925;28;45365;-70
2022/03/20 07:38:45;;;;;;;;;15.00;14.00;;;;;14.77;32.71;102117.03;4982668;28;45563;-69
2022/03/20 07:41:11;;;;;;;;;12.67;11.67;;;;;15.09;32.45;102106.94;5016402;28;46024;-70
2022/03/20 07:43:36;;;;;;;;;19.33;18.67;;;;;15.96;31.08;102125.63;5015211;28;45385;-69
2022/03/20 07:46:01;;;;;;;;;19.33;19.33;;;;;16.63;29.66;102129.91;5000067;28;45273;-72
2022/03/20 07:48:27;;;;;;;;;16.67;15.67;;;;;17.10;28.61;102119.00;5001269;28;45420;-69
2022/03/20 07:50:53;;;;;;;;;21.67;19.33;;;;;17.72;27.70;102113.69;5000887;28;47565;-69
2022/03/20 07:53:19;;;;;;;;;21.00;19.33;;;;;18.10;26.78;102123.19;5018665;28;45479;-69
2022/03/20 07:55:45;;;;;;;;;25.33;21.67;;;;;18.37;26.35;102132.91;5011591;28;45364;-69
2022/03/20 07:58:12;;;;;;;;;18.33;16.33;;;;;18.06;26.71;102124.50;4991170;28;45324;-70
2022/03/20 08:00:39;;;;;;;;;21.00;20.33;;;;;19.14;25.83;102132.66;4999752;28;47586;-70
2022/03/20 08:03:05;;;;;;;;;28.00;23.33;;;;;19.10;25.32;102127.78;5017321;28;45492;-69
2022/03/20 08:05:30;;;;;;;;;25.33;24.33;;;;;19.82;25.08;102131.50;5018017;28;45538;-69
2022/03/20 08:07:56;;;;;;;;;27.33;25.33;;;;;20.33;24.34;102046.47;5017145;28;45516;-70
2022/03/20 08:10:24;;;;;;;;;22.67;22.67;;;;;21.31;23.55;102110.78;5017428;28;46060;-70
2022/03/20 08:12:50;;;;;;;;;17.67;16.00;;;;;21.56;22.56;102077.06;5017721;28;45494;-70
2022/03/20 08:22:09;;;;;;;;;30.00;22.67;;;;;21.22;23.32;102111.81;4975938;28;45628;-71
2022/03/20 08:24:36;;;;;;;;;23.00;22.00;;;;;21.55;22.73;102116.00;4975498;28;45611;-69
2022/03/20 08:27:01;;;;;;;;;25.00;25.00;;;;;21.95;22.91;102126.59;5009138;28;45403;-70
2022/03/20 08:29:27;;;;;;;;;24.00;22.67;;;;;22.56;21.77;102128.13;5017631;28;45395;-69
2022/03/20 08:31:54;;;;;;;;;27.00;24.00;;;;;23.20;21.33;102120.09;5017400;28;45414;-70
2022/03/20 08:34:19;;;;;;;;;24.33;23.33;;;;;22.50;21.12;102008.78;5015897;28;45249;-70
2022/03/20 08:36:45;;;;;;;;;23.67;21.67;;;;;23.09;20.38;102100.78;4997792;28;45328;-68
2022/03/20 08:39:10;;;;;;;;;28.33;24.67;;;;;22.43;21.15;102117.97;5013732;28;45349;-70
2022/03/20 08:41:43;;;;;;;;;29.33;25.00;;;;;21.78;22.10;102091.56;5016920;28;45449;-70
2022/03/20 08:44:09;;;;;;;;;24.00;21.33;;;;;21.61;22.30;102127.94;4992438;28;45648;-73
2022/03/20 08:46:35;;;;;;;;;27.00;24.00;;;;;21.45;22.58;102120.81;5009130;28;45233;-69
2022/03/20 08:49:05;;;;;;;;;25.00;21.33;;;;;21.37;22.61;102114.63;5017479;28;45362;-71
2022/03/20 08:51:32;;;;;;;;;20.33;19.00;;;;;21.27;22.78;102112.19;5007493;28;45808;-70
2022/03/20 08:53:59;;;;;;;;;25.33;22.67;;;;;21.55;22.53;102124.09;5002682;28;45131;-71
2022/03/20 08:56:24;;;;;;;;;31.67;28.67;;;;;21.78;22.40;102117.81;5016708;28;45449;-70
2022/03/20 08:58:51;;;;;;;;;27.67;26.00;;;;;21.96;21.96;102131.00;4998980;28;45551;-70
2022/03/20 09:01:17;;;;;;;;;32.33;26.00;;;;;22.05;21.49;102129.94;5016772;28;45668;-70
2022/03/20 09:03:44;;;;;;;;;25.33;25.00;;;;;22.40;21.59;102133.72;5008497;28;45547;-71
2022/03/20 09:06:09;;;;;;;;;28.00;24.00;;;;;22.91;21.15;102120.22;5008821;28;45348;-71
2022/03/20 09:08:35;;;;;;;;;23.67;23.33;;;;;23.10;20.52;102140.44;5000770;28;45294;-69
2022/03/20 09:11:01;;;;;;;;;29.00;26.67;;;;;22.80;21.11;102129.66;4990365;28;47729;-70
2022/03/20 09:13:27;;;;;;;;;26.67;25.00;;;;;22.75;20.83;102113.97;4991271;28;45404;-71
2022/03/20 09:18:59;;;;;;;;;26.67;22.00;;;;;22.97;21.21;102143.84;5016298;28;45249;-70
2022/03/20 09:18:59;;;;;;;;;25.33;23.67;;;;;22.58;21.07;102133.34;5016239;28;45568;-72
2022/03/20 09:21:31;;;;;;;;;26.00;23.33;;;;;22.65;21.46;102131.56;4997588;28;48252;-71
2022/03/20 09:23:58;;;;;;;;;28.33;26.67;;;;;22.36;21.40;102097.22;4979638;28;45284;-71
2022/03/20 09:26:23;;;;;;;;;26.00;25.00;;;;;22.24;21.45;102136.66;5003562;28;45508;-70
2022/03/20 09:28:49;;;;;;;;;29.00;23.67;;;;;22.19;21.81;102147.19;5016785;28;45560;-71
2022/03/20 09:31:22;;;;;;;;;32.67;25.67;;;;;22.49;21.58;102148.88;5011824;28;46592;-71
2022/03/20 09:33:58;;;;;;;;;24.67;23.67;;;;;23.35;20.84;102131.72;4996879;28;45657;-70
2022/03/20 09:36:23;;;;;;;;;30.67;30.33;;;;;24.63;19.92;102132.41;5009022;28;45287;-69
2022/03/20 09:38:52;;;;;;;;;27.67;25.00;;;;;25.61;18.64;102120.91;5008936;28;45356;-70
2022/03/20 09:41:17;;;;;;;;;26.67;26.67;;;;;26.74;17.53;102135.16;4992577;28;48211;-70
2022/03/20 09:43:45;;;;;;;;;28.67;26.33;;;;;27.67;17.35;102116.28;4978960;28;45450;-71
2022/03/20 09:46:13;;;;;;;;;20.33;19.67;;;;;28.41;15.94;102106.25;4991186;28;45447;-72
2022/03/20 09:48:40;;;;;;;;;26.67;22.33;;;;;29.20;15.36;102131.72;5016709;28;45579;-69
2022/03/20 09:54:18;;;;;;;;;26.50;25.00;;;;;29.85;14.94;102107.88;4964354;28;45544;-69
2022/03/20 09:56:53;;;;;;;;;22.33;21.67;;;;;30.18;14.24;102122.88;4989798;28;45568;-69
2022/03/20 09:59:19;;;;;;;;;25.33;23.00;;;;;29.69;14.71;102122.31;4999019;28;45391;-71
2022/03/20 10:01:44;;;;;;;;;25.33;24.67;;;;;28.83;14.72;102115.38;5008539;28;45244;-69
2022/03/20 10:04:18;;;;;;;;;24.33;22.67;;;;;28.12;15.44;102122.34;5015640;28;45443;-69
2022/03/20 10:06:44;;;;;;;;;19.33;19.33;;;;;26.76;16.14;102127.59;4990068;28;45557;-70
2022/03/20 10:09:11;;;;;;;;;22.67;21.67;;;;;25.73;17.14;102129.31;5015956;28;45325;-70
2022/03/20 10:11:48;;;;;;;;;24.67;21.00;;;;;24.66;17.08;102119.28;4998127;28;45617;-69
2022/03/20 10:14:18;;;;;;;;;27.00;24.00;;;;;23.58;18.61;102095.41;5005158;28;45406;-69
2022/03/20 10:16:49;;;;;;;;;29.33;23.67;;;;;23.07;19.21;102109.13;5010986;28;45230;-69
2022/03/20 10:19:28;;;;;;;;;23.67;23.33;;;;;22.25;20.11;102125.63;5013534;28;45600;-69
2022/03/20 10:21:55;;;;;;;;;31.33;27.33;;;;;21.54;20.54;102141.38;4994256;28;48009;-70
2022/03/20 10:24:23;;;;;;;;;24.00;22.67;;;;;20.95;21.45;102145.66;5015187;28;45667;-68
2022/03/20 10:27:03;;;;;;;;;24.00;23.00;;;;;20.21;21.91;102128.88;5015658;28;45520;-70
2022/03/20 10:29:30;;;;;;;;;29.33;27.67;;;;;19.77;22.35;102130.34;5008463;28;45352;-70
2022/03/20 10:32:00;;;;;;;;;33.00;29.67;;;;;19.11;22.93;102146.47;4998933;28;48557;-72
2022/03/20 10:34:25;;;;;;;;;31.00;25.00;;;;;18.44;23.20;102142.88;5001052;28;45562;-69
2022/03/20 10:36:51;;;;;;;;;27.67;25.33;;;;;17.78;24.11;102129.19;5019076;28;45248;-74
2022/03/20 10:39:19;;;;;;;;;25.67;23.00;;;;;16.71;24.73;102064.72;4993905;28;45539;-72
2022/03/20 10:41:47;;;;;;;;;26.33;25.00;;;;;16.11;26.53;102108.09;5003489;28;47544;-72
2022/03/20 10:44:16;;;;;;;;;44.00;34.67;;;;;16.20;26.84;102151.13;4999238;28;45298;-72
2022/03/20 10:46:43;;;;;;;;;27.00;24.67;;;;;15.97;27.29;102138.06;4981727;28;45375;-71
2022/03/20 10:49:11;;;;;;;;;28.00;27.00;;;;;15.73;27.67;102140.38;4998424;28;45567;-70
2022/03/20 10:51:42;;;;;;;;;28.00;24.33;;;;;15.34;28.68;102136.84;5006503;28;45605;-70
2022/03/20 10:54:09;;;;;;;;;22.33;22.33;;;;;15.13;28.62;102151.22;4998745;28;45263;-70
2022/03/20 10:56:51;;;;;;;;;25.33;24.67;;;;;14.74;28.11;102118.16;5006870;28;45436;-70
2022/03/20 10:59:17;;;;;;;;;22.33;19.67;;;;;14.86;28.30;102141.19;5008568;28;45226;-69
2022/03/20 11:01:47;;;;;;;;;19.00;18.33;;;;;14.78;27.73;102122.25;5000712;28;47204;-73
2022/03/20 11:04:14;;;;;;;;;20.33;19.33;;;;;14.68;27.58;102116.03;4998613;28;45443;-71
2022/03/20 11:06:42;;;;;;;;;24.67;24.67;;;;;14.53;27.69;102138.81;5017209;28;45409;-70
2022/03/20 11:09:07;;;;;;;;;25.00;22.33;;;;;14.14;27.72;102077.09;5018642;28;45518;-70
2022/03/20 11:11:34;;;;;;;;;23.67;20.67;;;;;14.40;27.66;102130.13;5022891;28;46255;-71
2022/03/20 11:14:03;;;;;;;;;21.67;18.33;;;;;14.23;27.54;102096.88;5016238;28;45599;-70
2022/03/20 11:16:33;;;;;;;;;23.67;20.67;;;;;14.11;26.88;102104.13;5001549;28;45445;-69
2022/03/20 11:18:59;;;;;;;;;21.67;19.00;;;;;14.24;27.39;102131.50;5020083;28;45253;-71
2022/03/20 11:21:27;;;;;;;;;19.33;18.33;;;;;14.07;27.31;102116.06;4999743;28;48318;-70
2022/03/20 11:23:54;;;;;;;;;16.67;15.33;;;;;14.00;26.69;102130.94;5018525;28;45320;-69
2022/03/20 11:26:26;;;;;;;;;19.33;18.67;;;;;13.96;27.25;102129.50;5018004;28;45416;-71
2022/03/20 11:28:57;;;;;;;;;23.00;17.67;;;;;13.97;26.45;102136.56;5018582;28;45309;-70
2022/03/20 11:31:23;;;;;;;;;19.33;19.33;;;;;13.83;27.70;102135.09;5000094;28;48076;-69
2022/03/20 11:33:51;;;;;;;;;21.00;21.00;;;;;13.77;28.10;102132.06;5010698;28;45488;-70
2022/03/20 11:36:17;;;;;;;;;19.67;19.00;;;;;13.66;27.81;102120.47;5010164;28;45266;-72
2022/03/20 11:38:42;;;;;;;;;20.00;18.33;;;;;13.77;28.00;102130.25;5018466;28;45340;-71
2022/03/20 11:41:11;;;;;;;;;19.33;18.33;;;;;13.78;27.68;102131.09;5017718;28;45530;-69
2022/03/20 11:43:39;;;;;;;;;19.00;18.00;;;;;13.82;27.71;102132.53;4989264;28;46006;-69
2022/03/20 11:46:32;;;;;;;;;24.00;18.33;;;;;13.85;28.37;102129.59;4978492;28;45223;-69
2022/03/20 11:49:13;;;;;;;;;21.67;19.67;;;;;13.81;27.98;102128.16;4972417;28;45718;-70
2022/03/20 11:52:01;;;;;;;;;23.67;22.67;;;;;13.72;28.30;102134.28;4978033;28;46532;-69
2022/03/20 11:54:50;;;;;;;;;21.67;19.67;;;;;13.66;28.55;102125.81;4975927;28;45397;-70
2022/03/20 11:57:28;;;;;;;;;21.00;16.00;;;;;13.83;27.76;102120.88;4974379;28;45476;-70
2022/03/20 12:00:08;;;;;;;;;17.67;17.00;;;;;13.91;28.02;102123.72;4986817;28;45426;-72
2022/03/20 12:02:33;;;;;;;;;24.00;20.33;;;;;14.05;28.09;102120.72;4961976;28;46425;-70